Last 7 Days

Abernathy 3 (AB3)

Hourly Data | America/Los_Angeles
as of 6/18/19 10:19 PM PDT
Date & Time Temp (°F) RH (%) Dew Pt (°F) Wind Spd (mph) Wind Dir (°) Wind Gust (mph) Latest Rain (In) Daily Rain (In) Daily Min Temp (°F) Daily Max Temp (°F)
6/18/19 - 2200 62.7 78 55.6 12.1 SSW | 211 17.8 0.00 0.00 60.8 90.6
6/18/19 - 2100 66.5 69 56.0 12.0 SSW | 213 17.2 0.00 0.00 60.8 90.6
6/18/19 - 2000 75.9 53 57.5 11.4 SW | 226 16.5 0.00 0.00 60.8 90.6
6/18/19 - 1900 82.8 44 58.6 11.1 SW | 229 18.2 0.00 0.00 60.8 90.6
6/18/19 - 1800 87.5 37 57.9 12.4 WSW | 247 20.5 0.00 0.00 60.8 90.6
6/18/19 - 1700 88.7 39 60.5 12.0 WSW | 251 20.9 0.00 0.00 60.8 90.6
6/18/19 - 1600 89.4 39 61.6 12.6 WSW | 250 20.2 0.00 0.00 60.8 90.6
6/18/19 - 1500 89.0 40 61.3 13.1 WSW | 239 20.5 0.00 0.00 60.8 90.6
6/18/19 - 1400 88.0 41 61.0 10.7 WSW | 249 18.2 0.00 0.00 60.8 88.8
6/18/19 - 1300 83.9 44 59.8 11.4 SW | 214 15.8 0.00 0.00 60.8 86.6
6/18/19 - 1200 80.6 48 58.9 11.5 SSW | 208 16.5 0.00 0.00 60.8 81.7
6/18/19 - 1100 77.7 50 57.5 10.0 SSW | 203 13.8 0.00 0.00 60.8 80.2
6/18/19 - 1000 73.3 55 56.2 9.2 SSW | 199 13.2 0.00 0.00 60.8 75.6
6/18/19 - 0900 69.4 64 56.5 7.3 SSW | 198 11.1 0.00 0.00 60.8 71.4
6/18/19 - 0800 66.2 72 56.8 4.4 SW | 216 9.5 0.00 0.00 60.8 67.3
6/18/19 - 0700 61.9 82 56.4 0.7 WSW | 244 6.1 0.00 0.00 60.8 66.6
6/18/19 - 0600 61.4 82 55.7 4.7 SSW | 206 7.4 0.00 0.00 60.8 66.6
6/18/19 - 0500 61.1 83 56.1 1.5 SW | 236 6.1 0.00 0.00 60.8 66.6
6/18/19 - 0400 61.8 81 55.8 2.0 SSW | 192 7.4 0.00 0.00 61.4 66.6
6/18/19 - 0300 63.0 77 55.5 3.8 S | 169 9.1 0.00 0.00 61.8 66.6
6/18/19 - 0200 65.3 68 54.6 4.6 SSW | 208 9.8 0.00 0.00 63.9 66.6
6/18/19 - 0100 64.5 71 54.7 8.2 SW | 224 12.5 0.00 0.00 55.9 87.9
6/18/19 - 0000 63.5 72 54.5 8.4 SSW | 212 12.5 0.00 0.00 55.9 87.9
6/17/19 - 2300 64.7 69 54.4 9.7 SSW | 210 14.2 0.00 0.00 55.9 87.9
6/17/19 - 2200 66.6 65 54.6 10.0 SSW | 208 15.5 0.00 0.00 55.9 87.9
6/17/19 - 2100 70.7 59 55.4 8.6 SSW | 204 15.2 0.00 0.00 55.9 87.9
6/17/19 - 2000 78.1 48 56.6 9.2 WSW | 237 16.8 0.00 0.00 55.9 87.9
6/17/19 - 1900 81.7 44 57.7 9.4 W | 261 16.8 0.00 0.00 55.9 87.9
6/17/19 - 1800 84.0 43 59.0 10.0 WSW | 243 18.8 0.00 0.00 55.9 87.9
6/17/19 - 1700 86.1 42 60.2 10.4 WSW | 242 19.2 0.00 0.00 55.9 87.9
6/17/19 - 1600 85.2 43 60.0 12.5 SW | 230 18.5 0.00 0.00 55.9 87.9
6/17/19 - 1500 86.8 42 60.7 11.8 WSW | 244 18.2 0.00 0.00 55.9 87.9
6/17/19 - 1400 84.2 44 60.1 10.3 SW | 228 15.5 0.00 0.00 55.9 86.8
6/17/19 - 1300 80.9 47 59.0 10.7 SSW | 210 16.5 0.00 0.00 55.9 83.1
6/17/19 - 1200 76.2 52 57.4 10.3 SSW | 207 14.2 0.00 0.00 55.9 78.6
6/17/19 - 1100 72.0 58 56.3 10.5 SSW | 209 14.2 0.00 0.00 55.9 73.9
6/17/19 - 1000 68.6 63 55.6 9.4 SSW | 206 13.8 0.00 0.00 55.9 70.6
6/17/19 - 0900 64.9 69 54.7 7.8 SSW | 210 11.1 0.00 0.00 55.9 67.1
6/17/19 - 0800 61.1 78 54.1 6.8 SW | 222 10.8 0.00 0.00 55.9 63.2
6/17/19 - 0700 57.6 85 53.2 6.7 SW | 218 10.5 0.00 0.00 55.9 59.0
6/17/19 - 0600 56.7 87 52.9 7.7 SW | 227 12.5 0.00 0.00 55.9 57.0
6/17/19 - 0500 56.7 86 52.6 9.4 SW | 227 15.2 0.00 0.00 55.9 57.0
6/17/19 - 0400 56.7 85 52.3 10.0 SW | 225 14.8 0.00 0.00 55.9 57.0
6/17/19 - 0300 56.4 86 52.3 9.8 SW | 222 14.8 0.00 0.00 55.9 56.9
6/17/19 - 0200 56.3 86 52.0 11.1 SW | 225 18.2 0.00 0.00 55.9 56.6
6/17/19 - 0100 56.3 85 52.0 12.8 SW | 223 19.2 0.00 0.00 52.6 81.3
6/17/19 - 0000 56.6 86 52.4 12.7 SW | 223 17.5 0.00 0.00 52.6 81.3
6/16/19 - 2300 57.0 85 52.4 13.0 SW | 216 19.8 0.00 0.00 52.6 81.3
6/16/19 - 2200 59.0 79 52.5 10.6 SW | 220 15.8 0.00 0.00 52.6 81.3
6/16/19 - 2100 61.2 75 53.1 12.9 SW | 217 17.5 0.00 0.00 52.6 81.3
6/16/19 - 2000 66.8 63 54.0 12.6 SW | 221 17.8 0.00 0.00 52.6 81.3
6/16/19 - 1900 71.4 58 55.8 13.8 SW | 222 21.9 0.00 0.00 52.6 81.3
6/16/19 - 1800 74.9 53 56.8 11.7 SW | 221 17.5 0.00 0.00 52.6 81.3
6/16/19 - 1700 78.8 48 57.5 12.4 SW | 234 19.8 0.00 0.00 52.6 81.3
6/16/19 - 1600 80.3 46 57.6 10.9 WSW | 248 20.5 0.00 0.00 52.6 80.9
6/16/19 - 1500 78.9 46 56.5 11.7 SW | 230 18.5 0.00 0.00 52.6 80.9
6/16/19 - 1400 74.6 52 55.9 12.3 SSW | 206 17.2 0.00 0.00 52.6 76.3
6/16/19 - 1300 68.8 60 54.4 13.5 SSW | 212 18.8 0.00 0.00 52.6 71.9
6/16/19 - 1200 67.2 62 53.9 13.2 SW | 221 19.2 0.00 0.00 52.6 68.5
6/16/19 - 1100 63.9 69 53.4 12.8 SW | 219 17.8 0.00 0.00 52.6 66.1
6/16/19 - 1000 61.6 73 53.0 11.6 SW | 219 17.2 0.00 0.00 52.6 63.3
6/16/19 - 0900 59.5 78 52.6 9.4 SW | 224 15.5 0.00 0.00 52.6 60.4
6/16/19 - 0800 57.0 84 52.1 6.2 WSW | 250 10.8 0.00 0.00 52.6 58.8
6/16/19 - 0700 54.0 90 51.2 5.4 WSW | 247 10.5 0.00 0.00 52.6 55.3
6/16/19 - 0600 52.7 92 50.4 4.8 WSW | 245 9.5 0.00 0.00 52.6 54.4
6/16/19 - 0500 52.8 91 50.2 5.8 SW | 236 10.8 0.00 0.00 52.6 54.4
6/16/19 - 0400 52.9 91 50.4 8.3 SW | 227 12.5 0.00 0.00 52.8 54.4
6/16/19 - 0300 53.1 90 50.4 9.0 SW | 224 14.2 0.00 0.00 53.0 54.4
6/16/19 - 0200 53.8 89 50.7 6.7 WSW | 240 14.5 0.00 0.00 53.2 54.4
6/16/19 - 0100 54.7 87 51.0 6.9 WSW | 246 11.5 0.00 0.00 53.7 72.8
6/16/19 - 0000 55.7 86 51.4 8.1 WSW | 238 13.8 0.00 0.00 53.7 72.8
6/15/19 - 2300 56.4 84 51.5 10.8 SW | 231 16.8 0.00 0.00 53.7 72.8
6/15/19 - 2200 57.8 80 51.6 11.4 SW | 232 18.5 0.00 0.00 53.7 72.8
6/15/19 - 2100 60.0 74 51.7 13.4 SW | 225 20.2 0.00 0.00 53.7 72.8
6/15/19 - 2000 63.2 70 53.1 15.3 SW | 224 22.5 0.00 0.00 53.7 72.8
6/15/19 - 1900 66.2 64 53.7 16.6 SW | 225 23.9 0.00 0.00 53.7 72.8
6/15/19 - 1800 69.3 58 53.9 16.9 SW | 226 23.5 0.00 0.00 53.7 72.8
6/15/19 - 1700 70.7 56 54.3 16.8 SW | 222 24.9 0.00 0.00 53.7 72.8
6/15/19 - 1600 72.0 55 54.7 15.2 SW | 226 22.2 0.00 0.00 53.7 72.8
6/15/19 - 1500 71.4 55 54.6 16.4 SW | 221 23.2 0.00 0.00 53.7 72.7
6/15/19 - 1400 70.2 57 54.5 14.7 SW | 220 21.9 0.00 0.00 53.7 71.8
6/15/19 - 1300 67.2 62 53.7 14.9 SW | 215 20.2 0.00 0.00 53.7 68.5
6/15/19 - 1200 65.2 65 53.1 14.4 SW | 220 21.5 0.00 0.00 53.7 67.0
6/15/19 - 1100 62.6 69 52.4 14.5 SW | 223 19.8 0.00 0.00 53.7 63.7
6/15/19 - 1000 60.9 72 51.8 12.4 SW | 231 21.9 0.00 0.00 53.7 61.8
6/15/19 - 0900 58.6 76 51.2 9.9 WSW | 242 16.8 0.00 0.00 53.7 60.2
6/15/19 - 0800 55.7 82 50.4 8.7 SW | 234 15.8 0.00 0.00 53.7 57.2
6/15/19 - 0700 54.4 86 50.2 7.4 WSW | 243 14.2 0.00 0.00 53.7 55.1
6/15/19 - 0600 54.2 87 50.4 8.1 WSW | 247 15.8 0.00 0.00 53.7 55.1
6/15/19 - 0500 54.0 87 50.3 10.9 WSW | 239 18.5 0.00 0.00 53.7 55.1
6/15/19 - 0400 54.0 87 50.1 10.6 WSW | 238 17.8 0.00 0.00 53.7 55.1
6/15/19 - 0300 54.0 86 50.0 9.4 WSW | 243 16.2 0.00 0.00 53.7 55.1
6/15/19 - 0200 54.6 84 49.9 12.1 SW | 235 18.8 0.00 0.00 54.1 55.1
6/15/19 - 0100 55.4 81 49.7 12.3 SW | 230 19.8 0.00 0.00 54.2 81.5
6/15/19 - 0000 56.1 79 49.7 13.2 SW | 236 21.2 0.00 0.00 54.2 81.5
6/14/19 - 2300 56.2 80 50.3 16.0 SW | 231 23.2 0.00 0.00 54.2 81.5
6/14/19 - 2200 58.9 73 50.2 15.1 SW | 231 23.5 0.00 0.00 54.2 81.5
6/14/19 - 2100 62.4 65 50.7 16.8 SW | 224 25.2 0.00 0.00 54.2 81.5
6/14/19 - 2000 66.6 64 54.0 15.1 SW | 222 25.6 0.00 0.00 54.2 81.5
6/14/19 - 1900 70.9 58 55.6 14.0 SW | 219 19.8 0.00 0.00 54.2 81.5
6/14/19 - 1800 75.9 52 57.2 14.7 SW | 224 21.5 0.00 0.00 54.2 81.5
6/14/19 - 1700 78.8 49 58.1 13.7 SW | 226 20.9 0.00 0.00 54.2 81.5
6/14/19 - 1600 80.0 47 58.0 12.8 SW | 226 19.8 0.00 0.00 54.2 81.5
6/14/19 - 1500 78.5 48 57.2 13.3 SW | 216 18.8 0.00 0.00 54.2 80.6
6/14/19 - 1400 75.3 52 56.4 13.6 SW | 214 19.8 0.00 0.00 54.2 77.6
6/14/19 - 1300 71.8 56 55.3 14.7 SSW | 212 20.5 0.00 0.00 54.2 73.6
6/14/19 - 1200 68.8 61 54.6 13.1 SSW | 201 18.2 0.00 0.00 54.2 70.9
6/14/19 - 1100 65.4 66 53.7 12.6 SSW | 212 17.5 0.00 0.00 54.2 66.9
6/14/19 - 1000 63.3 70 53.3 11.4 SW | 231 17.8 0.00 0.00 54.2 65.1
6/14/19 - 0900 61.0 75 52.9 9.7 SW | 234 16.2 0.00 0.00 54.2 62.5
6/14/19 - 0800 58.2 81 52.4 7.4 WSW | 258 13.5 0.00 0.00 54.2 59.8
6/14/19 - 0700 55.3 88 51.9 7.2 WSW | 258 13.5 0.00 0.00 54.2 56.8
6/14/19 - 0600 54.3 90 51.4 8.2 WSW | 258 16.8 0.00 0.00 54.2 56.2
6/14/19 - 0500 54.9 88 51.3 8.2 WSW | 246 14.2 0.00 0.00 54.6 56.2
6/14/19 - 0400 55.2 87 51.3 8.7 WSW | 242 16.8 0.00 0.00 55.0 56.2
6/14/19 - 0300 55.6 86 51.5 8.8 WSW | 245 15.5 0.00 0.00 55.5 56.2
6/14/19 - 0200 55.9 86 51.7 9.8 WSW | 237 15.2 0.00 0.00 55.6 56.2
6/14/19 - 0100 56.9 82 51.5 10.5 SW | 228 16.8 0.00 0.00 56.1 82.7
6/14/19 - 0000 58.9 76 51.3 12.0 SW | 226 18.5 0.00 0.00 58.3 82.7
6/13/19 - 2300 61.2 70 51.4 10.5 SW | 218 18.8 0.00 0.00 58.4 82.7
6/13/19 - 2200 64.2 63 51.4 12.0 SW | 229 18.2 0.00 0.00 58.4 82.7
6/13/19 - 2100 68.0 59 53.0 12.7 SW | 217 18.8 0.00 0.00 58.4 82.7
6/13/19 - 2000 72.9 51 54.0 12.1 SW | 236 17.5 0.00 0.00 58.4 82.7
6/13/19 - 1900 75.2 52 56.6 10.4 SW | 227 15.2 0.00 0.00 58.4 82.7
6/13/19 - 1800 77.4 52 58.2 15.8 SW | 233 22.2 0.00 0.00 58.4 82.7
6/13/19 - 1700 81.0 48 59.2 14.8 WSW | 239 21.5 0.00 0.00 58.4 82.7
6/13/19 - 1600 81.6 47 59.4 12.4 WSW | 239 19.8 0.00 0.00 58.4 82.4
6/13/19 - 1500 80.6 47 58.8 13.0 W | 260 22.9 0.00 0.00 58.4 82.0
6/13/19 - 1400 79.0 49 58.0 14.3 WSW | 252 23.2 0.00 0.00 58.4 80.3
6/13/19 - 1300 77.4 49 56.9 14.0 WSW | 250 23.5 0.00 0.00 58.4 78.2
6/13/19 - 1200 74.1 54 56.2 13.0 SW | 234 20.2 0.00 0.00 58.4 76.4
6/13/19 - 1100 69.5 60 55.1 13.9 WSW | 238 21.9 0.00 0.00 58.4 72.2
6/13/19 - 1000 65.6 68 54.7 13.9 WSW | 245 21.5 0.00 0.00 58.4 67.6
6/13/19 - 0900 63.6 72 54.6 12.7 WSW | 246 20.5 0.00 0.00 58.4 66.1
6/13/19 - 0800 61.1 80 55.0 10.6 SW | 230 16.5 0.00 0.00 58.4 66.1
6/13/19 - 0700 58.8 85 54.4 11.5 SW | 236 18.8 0.00 0.00 58.4 66.1
6/13/19 - 0600 58.9 84 54.0 12.5 SW | 228 18.8 0.00 0.00 58.4 66.1
6/13/19 - 0500 60.2 80 54.1 11.7 SSW | 211 16.5 0.00 0.00 59.4 66.1
6/13/19 - 0400 63.5 71 54.0 11.2 SW | 223 20.5 0.00 0.00 61.3 66.1
6/13/19 - 0300 65.3 66 53.7 12.6 SW | 235 20.2 0.00 0.00 62.8 66.1
6/13/19 - 0200 63.7 72 54.4 10.2 SW | 223 15.5 0.00 0.00 62.8 65.6
6/13/19 - 0100 64.3 72 55.1 11.5 SW | 223 19.2 0.00 0.00 63.2 98.1
6/13/19 - 0000 65.4 71 55.6 10.5 SW | 221 15.2 0.00 0.00 64.8 98.1
6/12/19 - 2300 67.3 65 55.2 9.6 SW | 224 13.8 0.00 0.00 66.1 98.1
6/12/19 - 2200 71.6 53 53.4 8.9 SW | 233 14.5 0.00 0.00 68.6 98.1
6/12/19 - 2100 74.1 51 55.0 9.7 SW | 224 16.8 0.00 0.00 68.6 98.1
6/12/19 - 2000 79.3 45 56.0 11.2 SW | 230 17.2 0.00 0.00 68.6 98.1
6/12/19 - 1900 85.1 36 55.1 11.3 SW | 229 18.5 0.00 0.00 68.6 98.1
6/12/19 - 1800 89.2 35 57.8 10.2 SW | 219 20.5 0.00 0.00 68.6 98.1
6/12/19 - 1700 94.4 33 60.5 10.4 W | 259 17.8 0.00 0.00 68.6 98.1
6/12/19 - 1600 96.6 29 58.8 9.4 SW | 228 14.5 0.00 0.00 68.6 98.1
6/12/19 - 1500 97.1 22 51.6 10.3 SSW | 211 14.5 0.00 0.00 68.6 98.1
6/12/19 - 1400 95.3 23 51.2 8.8 SSW | 198 13.8 0.00 0.00 68.6 96.6
6/12/19 - 1300 93.1 24 50.9 6.6 S | 183 11.5 0.00 0.00 68.6 94.9
6/12/19 - 1200 91.1 25 50.5 6.3 S | 187 13.2 0.00 0.00 68.6 91.9
6/12/19 - 1100 89.1 27 51.0 4.0 S | 177 8.4 0.00 0.00 68.6 90.2
6/12/19 - 1000 83.7 38 55.5 4.3 S | 173 9.1 0.00 0.00 68.6 88.4
6/12/19 - 0900 79.9 45 56.2 1.9 WNW | 294 7.8 0.00 0.00 68.6 82.9
6/12/19 - 0800 73.6 55 56.5 1.0 WSW | 240 5.1 0.00 0.00 68.6 76.7
6/12/19 - 0700 70.2 64 57.5 1.1 N | 349 6.1 0.00 0.00 68.6 76.7
6/12/19 - 0600 70.2 64 57.3 0.8 NW | 321 3.8 0.00 0.00 69.0 76.7
6/12/19 - 0500 72.2 57 56.0 0.7 WSW | 254 3.1 0.00 0.00 70.8 76.7
6/12/19 - 0400 71.7 59 56.6 1.9 WNW | 286 5.4 0.00 0.00 71.1 76.7
6/12/19 - 0300 75.3 51 56.1 1.4 S | 171 4.8 0.00 0.00 72.3 76.7
6/12/19 - 0200 73.5 48 52.8 0.9 SW | 221 4.8 0.00 0.00 72.9 76.0
6/12/19 - 0100 74.2 45 51.3 2.1 W | 271 3.8 0.00 0.00 62.7 103.4
6/12/19 - 0000 74.7 42 50.4 2.3 W | 264 4.8 0.00 0.00 62.7 103.4
6/11/19 - 2300 77.4 40 51.0 1.1 W | 272 4.1 0.00 0.00 62.7 103.4
Max 97.1 92 61.6 16.9 - 25.6 0.00 0.00 72.9 103.4
Avg 68.7 64 54.5 10.1 - 16.2 0.00 - - -
Min 52.7 22 49.7 0.7 - 3.1 0.00 0.00 52.6 54.4
Total - - - - - - 0.00 - - -
Tip: Bookmark this page for easy future reference